sensor_id;sensor_type;location;lat;lon;timestamp;temperature;humidity
32536;DHT22;18974;50.838;4.636;2023-06-14T00:00:14;20.70;82.70
32536;DHT22;18974;50.838;4.636;2023-06-14T00:02:40;20.70;86.60
32536;DHT22;18974;50.838;4.636;2023-06-14T00:05:07;20.70;87.10
32536;DHT22;18974;50.838;4.636;2023-06-14T00:07:38;20.50;87.60
32536;DHT22;18974;50.838;4.636;2023-06-14T00:10:09;20.40;89.50
32536;DHT22;18974;50.838;4.636;2023-06-14T00:12:35;20.30;87.60
32536;DHT22;18974;50.838;4.636;2023-06-14T00:15:02;20.20;87.80
32536;DHT22;18974;50.838;4.636;2023-06-14T00:17:28;20.10;87.80
32536;DHT22;18974;50.838;4.636;2023-06-14T00:19:58;20.00;89.70
32536;DHT22;18974;50.838;4.636;2023-06-14T00:22:24;19.80;90.00
32536;DHT22;18974;50.838;4.636;2023-06-14T00:24:53;19.70;90.30
32536;DHT22;18974;50.838;4.636;2023-06-14T00:27:19;19.70;90.20
32536;DHT22;18974;50.838;4.636;2023-06-14T00:29:44;19.70;90.40
32536;DHT22;18974;50.838;4.636;2023-06-14T00:32:10;19.60;90.60
32536;DHT22;18974;50.838;4.636;2023-06-14T00:34:36;19.60;90.90
32536;DHT22;18974;50.838;4.636;2023-06-14T00:37:01;19.50;91.10
32536;DHT22;18974;50.838;4.636;2023-06-14T00:39:27;19.40;91.30
32536;DHT22;18974;50.838;4.636;2023-06-14T00:41:53;19.40;91.40
32536;DHT22;18974;50.838;4.636;2023-06-14T00:44:18;19.40;91.50
32536;DHT22;18974;50.838;4.636;2023-06-14T00:46:45;19.40;91.40
32536;DHT22;18974;50.838;4.636;2023-06-14T00:49:13;19.30;91.40
32536;DHT22;18974;50.838;4.636;2023-06-14T00:51:41;19.30;91.60
32536;DHT22;18974;50.838;4.636;2023-06-14T00:54:06;19.30;91.50
32536;DHT22;18974;50.838;4.636;2023-06-14T00:56:32;19.30;90.50
32536;DHT22;18974;50.838;4.636;2023-06-14T00:58:58;19.30;90.30
32536;DHT22;18974;50.838;4.636;2023-06-14T01:01:24;19.40;91.00
32536;DHT22;18974;50.838;4.636;2023-06-14T01:03:49;19.40;90.10
32536;DHT22;18974;50.838;4.636;2023-06-14T01:06:59;19.40;90.40
32536;DHT22;18974;50.838;4.636;2023-06-14T01:09:23;19.40;90.90
32536;DHT22;18974;50.838;4.636;2023-06-14T01:14:22;19.30;91.40
32536;DHT22;18974;50.838;4.636;2023-06-14T01:16:50;19.30;91.20
32536;DHT22;18974;50.838;4.636;2023-06-14T01:19:18;19.30;91.30
32536;DHT22;18974;50.838;4.636;2023-06-14T01:21:48;19.20;91.30
32536;DHT22;18974;50.838;4.636;2023-06-14T01:24:16;19.20;91.50
32536;DHT22;18974;50.838;4.636;2023-06-14T01:26:45;19.10;91.20
32536;DHT22;18974;50.838;4.636;2023-06-14T01:29:13;19.10;91.00
32536;DHT22;18974;50.838;4.636;2023-06-14T01:31:43;19.00;90.90
32536;DHT22;18974;50.838;4.636;2023-06-14T01:34:09;19.00;90.70
32536;DHT22;18974;50.838;4.636;2023-06-14T01:36:36;19.00;90.40
32536;DHT22;18974;50.838;4.636;2023-06-14T01:39:05;19.00;89.30
32536;DHT22;18974;50.838;4.636;2023-06-14T01:41:31;19.10;88.50
32536;DHT22;18974;50.838;4.636;2023-06-14T01:43:58;19.10;89.00
32536;DHT22;18974;50.838;4.636;2023-06-14T01:46:25;19.10;90.00
32536;DHT22;18974;50.838;4.636;2023-06-14T01:48:51;19.10;90.70
32536;DHT22;18974;50.838;4.636;2023-06-14T01:51:17;19.10;89.30
32536;DHT22;18974;50.838;4.636;2023-06-14T01:53:42;19.10;88.60
32536;DHT22;18974;50.838;4.636;2023-06-14T01:56:08;19.10;88.60
32536;DHT22;18974;50.838;4.636;2023-06-14T01:58:34;19.10;90.10
32536;DHT22;18974;50.838;4.636;2023-06-14T02:01:00;19.00;90.90
32536;DHT22;18974;50.838;4.636;2023-06-14T02:03:26;18.90;90.80
32536;DHT22;18974;50.838;4.636;2023-06-14T02:05:52;18.90;91.00
32536;DHT22;18974;50.838;4.636;2023-06-14T02:08:18;18.80;90.80
32536;DHT22;18974;50.838;4.636;2023-06-14T02:10:44;18.80;90.80
32536;DHT22;18974;50.838;4.636;2023-06-14T02:13:09;18.70;90.50
32536;DHT22;18974;50.838;4.636;2023-06-14T02:15:35;18.80;91.10
32536;DHT22;18974;50.838;4.636;2023-06-14T02:18:04;18.70;91.20
32536;DHT22;18974;50.838;4.636;2023-06-14T02:20:30;18.60;91.40
32536;DHT22;18974;50.838;4.636;2023-06-14T02:22:57;18.60;91.50
32536;DHT22;18974;50.838;4.636;2023-06-14T02:25:22;18.50;91.50
32536;DHT22;18974;50.838;4.636;2023-06-14T02:27:48;18.50;91.90
32536;DHT22;18974;50.838;4.636;2023-06-14T02:30:14;18.40;91.60
32536;DHT22;18974;50.838;4.636;2023-06-14T02:32:40;18.30;91.60
32536;DHT22;18974;50.838;4.636;2023-06-14T02:35:08;18.40;91.00
32536;DHT22;18974;50.838;4.636;2023-06-14T02:37:34;18.40;90.80
32536;DHT22;18974;50.838;4.636;2023-06-14T02:40:00;18.40;90.80
32536;DHT22;18974;50.838;4.636;2023-06-14T02:42:26;18.30;90.90
32536;DHT22;18974;50.838;4.636;2023-06-14T02:44:51;18.40;90.90
32536;DHT22;18974;50.838;4.636;2023-06-14T02:47:20;18.30;90.80
32536;DHT22;18974;50.838;4.636;2023-06-14T02:49:46;18.30;90.90
32536;DHT22;18974;50.838;4.636;2023-06-14T02:52:12;18.40;90.70
32536;DHT22;18974;50.838;4.636;2023-06-14T02:54:37;18.30;90.90
32536;DHT22;18974;50.838;4.636;2023-06-14T02:57:03;18.30;91.00
32536;DHT22;18974;50.838;4.636;2023-06-14T02:59:29;18.30;91.00
32536;DHT22;18974;50.838;4.636;2023-06-14T03:01:55;18.30;91.10
32536;DHT22;18974;50.838;4.636;2023-06-14T03:04:21;18.20;91.10
32536;DHT22;18974;50.838;4.636;2023-06-14T03:06:46;18.20;91.10
32536;DHT22;18974;50.838;4.636;2023-06-14T03:09:16;18.20;91.00
32536;DHT22;18974;50.838;4.636;2023-06-14T03:11:41;18.20;90.90
32536;DHT22;18974;50.838;4.636;2023-06-14T03:14:07;18.20;90.70
32536;DHT22;18974;50.838;4.636;2023-06-14T03:16:33;18.30;90.90
32536;DHT22;18974;50.838;4.636;2023-06-14T03:18:59;18.20;90.80
32536;DHT22;18974;50.838;4.636;2023-06-14T03:21:25;18.20;91.10
32536;DHT22;18974;50.838;4.636;2023-06-14T03:23:51;18.20;91.00
32536;DHT22;18974;50.838;4.636;2023-06-14T03:26:18;18.20;91.10
32536;DHT22;18974;50.838;4.636;2023-06-14T03:28:47;18.10;91.20
32536;DHT22;18974;50.838;4.636;2023-06-14T03:31:15;18.20;91.10
32536;DHT22;18974;50.838;4.636;2023-06-14T03:33:41;18.10;91.10
32536;DHT22;18974;50.838;4.636;2023-06-14T03:36:07;18.10;91.10
32536;DHT22;18974;50.838;4.636;2023-06-14T03:38:33;18.20;90.90
32536;DHT22;18974;50.838;4.636;2023-06-14T03:40:59;18.20;90.70
32536;DHT22;18974;50.838;4.636;2023-06-14T03:43:25;18.30;90.50
32536;DHT22;18974;50.838;4.636;2023-06-14T03:45:51;18.30;90.60
32536;DHT22;18974;50.838;4.636;2023-06-14T03:48:16;18.30;90.60
32536;DHT22;18974;50.838;4.636;2023-06-14T03:50:42;18.30;90.70
32536;DHT22;18974;50.838;4.636;2023-06-14T03:53:08;18.30;90.60
32536;DHT22;18974;50.838;4.636;2023-06-14T03:55:34;18.30;90.60
32536;DHT22;18974;50.838;4.636;2023-06-14T03:58:00;18.30;90.60
32536;DHT22;18974;50.838;4.636;2023-06-14T04:00:26;18.40;90.50
32536;DHT22;18974;50.838;4.636;2023-06-14T04:02:52;18.30;90.50
32536;DHT22;18974;50.838;4.636;2023-06-14T04:05:18;18.30;90.50
32536;DHT22;18974;50.838;4.636;2023-06-14T04:07:45;18.40;91.50
32536;DHT22;18974;50.838;4.636;2023-06-14T04:10:12;18.30;91.80
32536;DHT22;18974;50.838;4.636;2023-06-14T04:12:38;18.30;92.10
32536;DHT22;18974;50.838;4.636;2023-06-14T04:15:05;18.30;92.70
32536;DHT22;18974;50.838;4.636;2023-06-14T04:17:34;18.30;92.20
32536;DHT22;18974;50.838;4.636;2023-06-14T04:20:01;18.30;92.20
32536;DHT22;18974;50.838;4.636;2023-06-14T04:22:26;18.30;91.80
32536;DHT22;18974;50.838;4.636;2023-06-14T04:24:55;18.30;91.70
32536;DHT22;18974;50.838;4.636;2023-06-14T04:27:25;18.40;92.90
32536;DHT22;18974;50.838;4.636;2023-06-14T04:29:52;18.30;93.30
32536;DHT22;18974;50.838;4.636;2023-06-14T04:32:25;18.40;93.80
32536;DHT22;18974;50.838;4.636;2023-06-14T04:34:53;18.40;94.00
32536;DHT22;18974;50.838;4.636;2023-06-14T04:37:20;18.40;93.50
32536;DHT22;18974;50.838;4.636;2023-06-14T04:39:47;18.40;92.90
32536;DHT22;18974;50.838;4.636;2023-06-14T04:42:13;18.50;92.60
32536;DHT22;18974;50.838;4.636;2023-06-14T04:44:42;18.50;92.60
32536;DHT22;18974;50.838;4.636;2023-06-14T04:47:12;18.60;92.40
32536;DHT22;18974;50.838;4.636;2023-06-14T04:49:38;18.60;93.20
32536;DHT22;18974;50.838;4.636;2023-06-14T04:52:05;18.70;93.40
32536;DHT22;18974;50.838;4.636;2023-06-14T04:54:31;18.70;93.80
32536;DHT22;18974;50.838;4.636;2023-06-14T04:56:58;18.80;93.40
32536;DHT22;18974;50.838;4.636;2023-06-14T04:59:24;18.80;92.50
32536;DHT22;18974;50.838;4.636;2023-06-14T05:01:50;18.90;93.00
32536;DHT22;18974;50.838;4.636;2023-06-14T05:04:16;19.00;93.00
32536;DHT22;18974;50.838;4.636;2023-06-14T05:06:42;19.10;92.40
32536;DHT22;18974;50.838;4.636;2023-06-14T05:09:14;19.20;91.90
32536;DHT22;18974;50.838;4.636;2023-06-14T05:11:40;19.30;91.60
32536;DHT22;18974;50.838;4.636;2023-06-14T05:14:07;19.40;91.40
32536;DHT22;18974;50.838;4.636;2023-06-14T05:16:33;19.50;91.80
32536;DHT22;18974;50.838;4.636;2023-06-14T05:18:59;19.60;90.80
32536;DHT22;18974;50.838;4.636;2023-06-14T05:21:25;19.70;90.60
32536;DHT22;18974;50.838;4.636;2023-06-14T05:23:50;19.80;90.40
32536;DHT22;18974;50.838;4.636;2023-06-14T05:26:16;20.00;90.20
32536;DHT22;18974;50.838;4.636;2023-06-14T05:28:42;20.10;90.50
32536;DHT22;18974;50.838;4.636;2023-06-14T05:31:08;20.20;89.90
32536;DHT22;18974;50.838;4.636;2023-06-14T05:33:33;20.30;88.60
32536;DHT22;18974;50.838;4.636;2023-06-14T05:35:59;20.40;88.40
32536;DHT22;18974;50.838;4.636;2023-06-14T05:38:25;20.50;87.50
32536;DHT22;18974;50.838;4.636;2023-06-14T05:40:51;20.50;87.50
32536;DHT22;18974;50.838;4.636;2023-06-14T05:43:16;20.50;88.60
32536;DHT22;18974;50.838;4.636;2023-06-14T05:45:42;20.70;87.80
32536;DHT22;18974;50.838;4.636;2023-06-14T05:48:07;20.80;87.50
32536;DHT22;18974;50.838;4.636;2023-06-14T05:50:33;20.90;87.00
32536;DHT22;18974;50.838;4.636;2023-06-14T05:52:59;20.90;87.30
32536;DHT22;18974;50.838;4.636;2023-06-14T05:55:24;21.10;87.00
32536;DHT22;18974;50.838;4.636;2023-06-14T05:57:50;21.20;86.50
32536;DHT22;18974;50.838;4.636;2023-06-14T06:00:17;21.30;86.30
32536;DHT22;18974;50.838;4.636;2023-06-14T06:02:44;21.30;86.70
32536;DHT22;18974;50.838;4.636;2023-06-14T06:05:10;21.40;86.00
32536;DHT22;18974;50.838;4.636;2023-06-14T06:07:36;21.60;86.10
32536;DHT22;18974;50.838;4.636;2023-06-14T06:10:03;21.60;85.60
32536;DHT22;18974;50.838;4.636;2023-06-14T06:12:30;21.90;84.70
32536;DHT22;18974;50.838;4.636;2023-06-14T06:14:55;21.90;84.00
32536;DHT22;18974;50.838;4.636;2023-06-14T06:17:21;21.90;84.00
32536;DHT22;18974;50.838;4.636;2023-06-14T06:19:47;21.90;84.70
32536;DHT22;18974;50.838;4.636;2023-06-14T06:22:12;22.00;84.30
32536;DHT22;18974;50.838;4.636;2023-06-14T06:24:38;22.10;84.30
32536;DHT22;18974;50.838;4.636;2023-06-14T06:27:04;22.20;83.70
32536;DHT22;18974;50.838;4.636;2023-06-14T06:29:30;22.30;84.00
32536;DHT22;18974;50.838;4.636;2023-06-14T06:31:55;22.30;83.10
32536;DHT22;18974;50.838;4.636;2023-06-14T06:34:22;22.30;83.80
32536;DHT22;18974;50.838;4.636;2023-06-14T06:36:47;22.40;83.40
32536;DHT22;18974;50.838;4.636;2023-06-14T06:39:13;22.60;82.40
32536;DHT22;18974;50.838;4.636;2023-06-14T06:41:40;22.70;82.10
32536;DHT22;18974;50.838;4.636;2023-06-14T06:44:07;22.80;83.00
32536;DHT22;18974;50.838;4.636;2023-06-14T06:46:33;22.90;81.60
32536;DHT22;18974;50.838;4.636;2023-06-14T06:48:59;23.10;82.00
32536;DHT22;18974;50.838;4.636;2023-06-14T06:51:25;23.20;81.10
32536;DHT22;18974;50.838;4.636;2023-06-14T06:53:54;23.30;80.60
32536;DHT22;18974;50.838;4.636;2023-06-14T06:56:21;23.40;81.40
32536;DHT22;18974;50.838;4.636;2023-06-14T06:58:49;23.40;80.60
32536;DHT22;18974;50.838;4.636;2023-06-14T07:01:15;23.50;80.30
32536;DHT22;18974;50.838;4.636;2023-06-14T07:03:41;23.50;80.80
32536;DHT22;18974;50.838;4.636;2023-06-14T07:06:07;23.70;81.40
32536;DHT22;18974;50.838;4.636;2023-06-14T07:08:32;23.80;79.70
32536;DHT22;18974;50.838;4.636;2023-06-14T07:10:58;24.00;80.00
32536;DHT22;18974;50.838;4.636;2023-06-14T07:13:24;24.20;79.80
32536;DHT22;18974;50.838;4.636;2023-06-14T07:15:49;24.30;79.30
32536;DHT22;18974;50.838;4.636;2023-06-14T07:18:15;24.40;78.00
32536;DHT22;18974;50.838;4.636;2023-06-14T07:20:41;24.40;78.10
32536;DHT22;18974;50.838;4.636;2023-06-14T07:23:08;24.40;78.10
32536;DHT22;18974;50.838;4.636;2023-06-14T07:25:34;24.60;77.80
32536;DHT22;18974;50.838;4.636;2023-06-14T07:27:59;24.60;77.70
32536;DHT22;18974;50.838;4.636;2023-06-14T07:30:25;24.70;76.30
32536;DHT22;18974;50.838;4.636;2023-06-14T07:32:53;24.90;76.20
32536;DHT22;18974;50.838;4.636;2023-06-14T07:35:18;25.00;76.50
32536;DHT22;18974;50.838;4.636;2023-06-14T07:37:44;25.10;75.10
32536;DHT22;18974;50.838;4.636;2023-06-14T07:40:12;25.30;75.00
32536;DHT22;18974;50.838;4.636;2023-06-14T07:42:38;25.30;75.10
32536;DHT22;18974;50.838;4.636;2023-06-14T07:45:05;25.40;74.90
32536;DHT22;18974;50.838;4.636;2023-06-14T07:47:31;25.50;75.40
32536;DHT22;18974;50.838;4.636;2023-06-14T07:49:57;25.50;74.60
32536;DHT22;18974;50.838;4.636;2023-06-14T07:52:22;25.60;74.70
32536;DHT22;18974;50.838;4.636;2023-06-14T07:54:48;25.80;74.10
32536;DHT22;18974;50.838;4.636;2023-06-14T07:57:14;26.00;74.60
32536;DHT22;18974;50.838;4.636;2023-06-14T07:59:39;26.10;73.40
32536;DHT22;18974;50.838;4.636;2023-06-14T08:02:05;26.00;74.30
32536;DHT22;18974;50.838;4.636;2023-06-14T08:04:32;26.00;75.70
32536;DHT22;18974;50.838;4.636;2023-06-14T08:06:59;26.20;75.00
32536;DHT22;18974;50.838;4.636;2023-06-14T08:09:24;26.30;73.60
32536;DHT22;18974;50.838;4.636;2023-06-14T08:11:50;26.30;74.70
32536;DHT22;18974;50.838;4.636;2023-06-14T08:14:16;26.30;73.80
32536;DHT22;18974;50.838;4.636;2023-06-14T08:16:42;26.40;73.60
32536;DHT22;18974;50.838;4.636;2023-06-14T08:19:08;26.50;73.10
32536;DHT22;18974;50.838;4.636;2023-06-14T08:21:33;26.60;71.30
32536;DHT22;18974;50.838;4.636;2023-06-14T08:24:02;26.60;73.00
32536;DHT22;18974;50.838;4.636;2023-06-14T08:26:27;26.80;73.40
32536;DHT22;18974;50.838;4.636;2023-06-14T08:28:57;27.00;74.00
32536;DHT22;18974;50.838;4.636;2023-06-14T08:31:23;27.20;73.90
32536;DHT22;18974;50.838;4.636;2023-06-14T08:33:49;27.20;73.80
32536;DHT22;18974;50.838;4.636;2023-06-14T08:36:15;27.00;71.70
32536;DHT22;18974;50.838;4.636;2023-06-14T08:38:41;27.00;70.90
32536;DHT22;18974;50.838;4.636;2023-06-14T08:41:08;27.00;72.30
32536;DHT22;18974;50.838;4.636;2023-06-14T08:43:37;27.00;71.50
32536;DHT22;18974;50.838;4.636;2023-06-14T08:46:04;27.00;72.60
32536;DHT22;18974;50.838;4.636;2023-06-14T08:48:31;27.00;73.90
32536;DHT22;18974;50.838;4.636;2023-06-14T08:51:01;27.00;73.60
32536;DHT22;18974;50.838;4.636;2023-06-14T08:53:30;27.20;74.90
32536;DHT22;18974;50.838;4.636;2023-06-14T08:55:58;27.30;74.10
32536;DHT22;18974;50.838;4.636;2023-06-14T08:58:27;27.50;72.10
32536;DHT22;18974;50.838;4.636;2023-06-14T09:00:55;27.50;69.90
32536;DHT22;18974;50.838;4.636;2023-06-14T09:03:21;27.60;70.90
32536;DHT22;18974;50.838;4.636;2023-06-14T09:05:48;27.80;71.40
32536;DHT22;18974;50.838;4.636;2023-06-14T09:08:15;27.80;68.30
32536;DHT22;18974;50.838;4.636;2023-06-14T09:10:41;27.60;69.10
32536;DHT22;18974;50.838;4.636;2023-06-14T09:13:07;27.60;69.00
32536;DHT22;18974;50.838;4.636;2023-06-14T09:15:34;27.70;69.90
32536;DHT22;18974;50.838;4.636;2023-06-14T09:18:03;27.80;70.20
32536;DHT22;18974;50.838;4.636;2023-06-14T09:20:30;27.90;66.90
32536;DHT22;18974;50.838;4.636;2023-06-14T09:22:56;28.00;68.80
32536;DHT22;18974;50.838;4.636;2023-06-14T09:25:22;28.10;67.70
32536;DHT22;18974;50.838;4.636;2023-06-14T09:27:51;28.00;67.80
32536;DHT22;18974;50.838;4.636;2023-06-14T09:30:20;28.10;68.10
32536;DHT22;18974;50.838;4.636;2023-06-14T09:32:46;28.20;67.60
32536;DHT22;18974;50.838;4.636;2023-06-14T09:35:12;28.30;66.90
32536;DHT22;18974;50.838;4.636;2023-06-14T09:37:37;28.40;67.80
32536;DHT22;18974;50.838;4.636;2023-06-14T09:40:05;28.50;65.50
32536;DHT22;18974;50.838;4.636;2023-06-14T09:42:31;28.50;65.20
32536;DHT22;18974;50.838;4.636;2023-06-14T09:44:57;28.50;63.70
32536;DHT22;18974;50.838;4.636;2023-06-14T09:47:23;28.40;64.40
32536;DHT22;18974;50.838;4.636;2023-06-14T09:49:50;28.60;66.10
32536;DHT22;18974;50.838;4.636;2023-06-14T09:52:20;28.60;62.60
32536;DHT22;18974;50.838;4.636;2023-06-14T09:54:47;28.40;61.10
32536;DHT22;18974;50.838;4.636;2023-06-14T09:57:16;28.30;61.50
32536;DHT22;18974;50.838;4.636;2023-06-14T09:59:46;28.50;63.00
32536;DHT22;18974;50.838;4.636;2023-06-14T10:02:25;28.60;62.40
32536;DHT22;18974;50.838;4.636;2023-06-14T10:05:04;29.00;63.60
32536;DHT22;18974;50.838;4.636;2023-06-14T10:08:02;29.20;62.90
32536;DHT22;18974;50.838;4.636;2023-06-14T10:10:29;29.10;62.10
32536;DHT22;18974;50.838;4.636;2023-06-14T10:12:56;28.80;62.70
32536;DHT22;18974;50.838;4.636;2023-06-14T10:16:21;28.80;63.90
32536;DHT22;18974;50.838;4.636;2023-06-14T10:24:03;29.10;61.50
32536;DHT22;18974;50.838;4.636;2023-06-14T10:26:28;29.10;62.00
32536;DHT22;18974;50.838;4.636;2023-06-14T10:28:59;29.20;62.30
32536;DHT22;18974;50.838;4.636;2023-06-14T10:31:55;29.30;60.50
32536;DHT22;18974;50.838;4.636;2023-06-14T10:37:04;29.20;61.20
32536;DHT22;18974;50.838;4.636;2023-06-14T10:39:30;29.50;60.50
32536;DHT22;18974;50.838;4.636;2023-06-14T10:41:57;29.50;59.30
32536;DHT22;18974;50.838;4.636;2023-06-14T10:46:56;29.70;59.60
32536;DHT22;18974;50.838;4.636;2023-06-14T10:49:44;29.60;57.40
32536;DHT22;18974;50.838;4.636;2023-06-14T10:52:12;29.60;58.30
32536;DHT22;18974;50.838;4.636;2023-06-14T10:57:35;29.60;59.80
32536;DHT22;18974;50.838;4.636;2023-06-14T11:00:03;29.70;58.90
32536;DHT22;18974;50.838;4.636;2023-06-14T11:05:27;30.10;59.00
32536;DHT22;18974;50.838;4.636;2023-06-14T11:10:46;29.90;57.20
32536;DHT22;18974;50.838;4.636;2023-06-14T11:13:12;29.80;57.60
32536;DHT22;18974;50.838;4.636;2023-06-14T11:15:39;29.80;57.80
32536;DHT22;18974;50.838;4.636;2023-06-14T11:18:08;29.90;57.70
32536;DHT22;18974;50.838;4.636;2023-06-14T11:20:37;29.90;57.00
32536;DHT22;18974;50.838;4.636;2023-06-14T11:23:03;29.80;58.30
32536;DHT22;18974;50.838;4.636;2023-06-14T11:25:29;29.70;57.30
32536;DHT22;18974;50.838;4.636;2023-06-14T11:27:56;29.60;57.40
32536;DHT22;18974;50.838;4.636;2023-06-14T11:30:22;29.50;58.00
32536;DHT22;18974;50.838;4.636;2023-06-14T11:32:52;29.50;56.20
32536;DHT22;18974;50.838;4.636;2023-06-14T11:35:19;29.50;57.00
32536;DHT22;18974;50.838;4.636;2023-06-14T11:37:47;29.60;57.70
32536;DHT22;18974;50.838;4.636;2023-06-14T11:40:14;29.80;57.20
32536;DHT22;18974;50.838;4.636;2023-06-14T11:42:41;30.00;56.00
32536;DHT22;18974;50.838;4.636;2023-06-14T11:45:08;29.80;56.60
32536;DHT22;18974;50.838;4.636;2023-06-14T11:47:36;29.80;56.20
32536;DHT22;18974;50.838;4.636;2023-06-14T11:50:03;29.70;57.00
32536;DHT22;18974;50.838;4.636;2023-06-14T11:52:29;29.60;57.00
32536;DHT22;18974;50.838;4.636;2023-06-14T11:54:55;29.70;57.50
32536;DHT22;18974;50.838;4.636;2023-06-14T11:57:21;29.80;57.70
32536;DHT22;18974;50.838;4.636;2023-06-14T11:59:47;29.80;57.00
32536;DHT22;18974;50.838;4.636;2023-06-14T12:02:15;29.80;56.60
32536;DHT22;18974;50.838;4.636;2023-06-14T12:04:41;29.90;58.00
32536;DHT22;18974;50.838;4.636;2023-06-14T12:07:11;30.10;56.70
32536;DHT22;18974;50.838;4.636;2023-06-14T12:09:42;30.00;58.00
32536;DHT22;18974;50.838;4.636;2023-06-14T12:12:12;29.80;58.60
32536;DHT22;18974;50.838;4.636;2023-06-14T12:14:39;29.80;58.80
32536;DHT22;18974;50.838;4.636;2023-06-14T12:17:06;30.00;57.80
32536;DHT22;18974;50.838;4.636;2023-06-14T12:19:32;30.00;58.40
32536;DHT22;18974;50.838;4.636;2023-06-14T12:22:03;30.00;58.60
32536;DHT22;18974;50.838;4.636;2023-06-14T12:24:30;30.30;56.90
32536;DHT22;18974;50.838;4.636;2023-06-14T12:27:00;30.40;56.20
32536;DHT22;18974;50.838;4.636;2023-06-14T12:29:28;30.40;56.30
32536;DHT22;18974;50.838;4.636;2023-06-14T12:31:54;30.40;57.50
32536;DHT22;18974;50.838;4.636;2023-06-14T12:34:24;30.50;56.00
32536;DHT22;18974;50.838;4.636;2023-06-14T12:36:50;30.50;55.40
32536;DHT22;18974;50.838;4.636;2023-06-14T12:39:16;30.60;55.80
32536;DHT22;18974;50.838;4.636;2023-06-14T12:41:42;30.70;56.30
32536;DHT22;18974;50.838;4.636;2023-06-14T12:44:08;30.60;55.40
32536;DHT22;18974;50.838;4.636;2023-06-14T12:46:34;30.60;55.40
32536;DHT22;18974;50.838;4.636;2023-06-14T12:49:05;30.80;56.70
32536;DHT22;18974;50.838;4.636;2023-06-14T12:51:32;30.80;55.90
32536;DHT22;18974;50.838;4.636;2023-06-14T12:53:58;30.80;55.60
32536;DHT22;18974;50.838;4.636;2023-06-14T12:56:23;30.80;55.50
32536;DHT22;18974;50.838;4.636;2023-06-14T12:58:49;31.00;57.20
32536;DHT22;18974;50.838;4.636;2023-06-14T13:01:14;31.00;55.60
32536;DHT22;18974;50.838;4.636;2023-06-14T13:03:40;30.80;55.40
32536;DHT22;18974;50.838;4.636;2023-06-14T13:06:06;30.50;56.50
32536;DHT22;18974;50.838;4.636;2023-06-14T13:08:31;30.60;56.30
32536;DHT22;18974;50.838;4.636;2023-06-14T13:10:57;30.70;54.00
32536;DHT22;18974;50.838;4.636;2023-06-14T13:13:25;30.60;58.60
32536;DHT22;18974;50.838;4.636;2023-06-14T13:15:51;30.70;55.20
32536;DHT22;18974;50.838;4.636;2023-06-14T13:18:16;30.80;55.60
32536;DHT22;18974;50.838;4.636;2023-06-14T13:20:42;30.70;53.90
32536;DHT22;18974;50.838;4.636;2023-06-14T13:23:09;30.50;54.40
32536;DHT22;18974;50.838;4.636;2023-06-14T13:25:36;30.30;55.30
32536;DHT22;18974;50.838;4.636;2023-06-14T13:28:04;30.30;55.80
32536;DHT22;18974;50.838;4.636;2023-06-14T13:30:31;30.40;56.60
32536;DHT22;18974;50.838;4.636;2023-06-14T13:32:57;30.40;55.00
32536;DHT22;18974;50.838;4.636;2023-06-14T13:35:23;30.40;54.90
32536;DHT22;18974;50.838;4.636;2023-06-14T13:37:49;30.40;54.60
32536;DHT22;18974;50.838;4.636;2023-06-14T13:40:15;30.20;55.00
32536;DHT22;18974;50.838;4.636;2023-06-14T13:42:41;30.20;53.90
32536;DHT22;18974;50.838;4.636;2023-06-14T13:45:08;30.30;56.10
32536;DHT22;18974;50.838;4.636;2023-06-14T13:47:34;30.30;56.40
32536;DHT22;18974;50.838;4.636;2023-06-14T13:50:00;30.20;53.80
32536;DHT22;18974;50.838;4.636;2023-06-14T13:52:25;30.00;53.40
32536;DHT22;18974;50.838;4.636;2023-06-14T13:54:51;29.80;53.80
32536;DHT22;18974;50.838;4.636;2023-06-14T13:57:17;29.60;53.90
32536;DHT22;18974;50.838;4.636;2023-06-14T13:59:44;29.60;53.50
32536;DHT22;18974;50.838;4.636;2023-06-14T14:02:12;29.40;53.30
32536;DHT22;18974;50.838;4.636;2023-06-14T14:04:39;29.30;53.40
32536;DHT22;18974;50.838;4.636;2023-06-14T14:07:05;29.30;54.30
32536;DHT22;18974;50.838;4.636;2023-06-14T14:09:35;29.40;54.30
32536;DHT22;18974;50.838;4.636;2023-06-14T14:12:01;29.40;52.80
32536;DHT22;18974;50.838;4.636;2023-06-14T14:14:32;29.30;54.70
32536;DHT22;18974;50.838;4.636;2023-06-14T14:16:57;29.30;53.90
32536;DHT22;18974;50.838;4.636;2023-06-14T14:19:24;28.90;53.50
32536;DHT22;18974;50.838;4.636;2023-06-14T14:21:49;28.70;53.80
32536;DHT22;18974;50.838;4.636;2023-06-14T14:24:15;28.70;53.90
32536;DHT22;18974;50.838;4.636;2023-06-14T14:26:41;28.70;54.70
32536;DHT22;18974;50.838;4.636;2023-06-14T14:29:07;28.70;54.80
32536;DHT22;18974;50.838;4.636;2023-06-14T14:31:34;28.70;55.20
32536;DHT22;18974;50.838;4.636;2023-06-14T14:33:59;28.80;55.70
32536;DHT22;18974;50.838;4.636;2023-06-14T14:36:25;28.80;55.20
32536;DHT22;18974;50.838;4.636;2023-06-14T14:38:51;28.70;55.20
32536;DHT22;18974;50.838;4.636;2023-06-14T14:41:19;28.70;55.10
32536;DHT22;18974;50.838;4.636;2023-06-14T14:43:45;28.60;54.60
32536;DHT22;18974;50.838;4.636;2023-06-14T14:46:11;28.40;55.00
32536;DHT22;18974;50.838;4.636;2023-06-14T14:48:36;28.30;56.00
32536;DHT22;18974;50.838;4.636;2023-06-14T14:51:02;28.30;55.50
32536;DHT22;18974;50.838;4.636;2023-06-14T14:53:28;28.20;55.90
32536;DHT22;18974;50.838;4.636;2023-06-14T14:55:54;28.10;56.10
32536;DHT22;18974;50.838;4.636;2023-06-14T14:58:20;28.20;56.30
32536;DHT22;18974;50.838;4.636;2023-06-14T15:00:47;28.10;55.40
32536;DHT22;18974;50.838;4.636;2023-06-14T15:03:13;28.00;55.10
32536;DHT22;18974;50.838;4.636;2023-06-14T15:05:39;28.10;55.30
32536;DHT22;18974;50.838;4.636;2023-06-14T15:08:05;28.10;55.80
32536;DHT22;18974;50.838;4.636;2023-06-14T15:10:40;28.10;56.80
32536;DHT22;18974;50.838;4.636;2023-06-14T15:13:07;28.10;55.60
32536;DHT22;18974;50.838;4.636;2023-06-14T15:15:36;28.00;57.00
32536;DHT22;18974;50.838;4.636;2023-06-14T15:18:03;28.00;56.70
32536;DHT22;18974;50.838;4.636;2023-06-14T15:20:29;27.90;55.90
32536;DHT22;18974;50.838;4.636;2023-06-14T15:22:55;27.80;56.60
32536;DHT22;18974;50.838;4.636;2023-06-14T15:25:30;27.60;55.90
32536;DHT22;18974;50.838;4.636;2023-06-14T15:27:57;27.50;56.20
32536;DHT22;18974;50.838;4.636;2023-06-14T15:30:23;27.50;56.50
32536;DHT22;18974;50.838;4.636;2023-06-14T15:32:49;27.50;56.90
32536;DHT22;18974;50.838;4.636;2023-06-14T15:35:16;27.50;57.30
32536;DHT22;18974;50.838;4.636;2023-06-14T15:37:43;27.50;57.90
32536;DHT22;18974;50.838;4.636;2023-06-14T15:40:09;27.50;56.70
32536;DHT22;18974;50.838;4.636;2023-06-14T15:42:35;27.50;56.40
32536;DHT22;18974;50.838;4.636;2023-06-14T15:45:01;27.40;56.50
32536;DHT22;18974;50.838;4.636;2023-06-14T15:47:26;27.40;57.00
32536;DHT22;18974;50.838;4.636;2023-06-14T15:49:52;27.30;56.70